Max Meadows, Virginia
Current Conditions -  °F | °C
As of 8:35 AM on Friday 31 Oct 2014 (Local Time) from KHLX Reporting Station
Haze Haze  
Wind Chill: 29°   Ceiling: 1800
Heat Index: 33°   Visibility: 5mi
Dew Point: 33°   Wind: 5mph
Humidity: 99%   Direction: 200°SSW
Pressure: 29.96"   Gusts: NA
Location:  36.97°N, 80.95°W
Report Text: KHLX 311235Z AUTO 20004KT 5SM BR OVC018 01/00 A2996 RMK AO2 T00050003
Loading
Personal Weather Stations






























Interactive Weather Map
Tropical Storm Tracking
New forecast layout! Learn more

10-Day Weather Forecast

Advertisements
Track Severe Weather on mobile